createdAt,value
2023-04-19T00:00:12.261Z,103058.63
2023-04-19T00:02:42.765Z,103055.06
2023-04-19T00:05:12.030Z,103059.47
2023-04-19T00:07:40.471Z,103043.34
2023-04-19T00:10:09.717Z,103037.94
2023-04-19T00:12:38.017Z,103037.91
2023-04-19T00:15:08.561Z,103035.19
2023-04-19T00:17:36.739Z,103031.59
2023-04-19T00:20:05.633Z,103034.28
2023-04-19T00:22:33.784Z,103027.13
2023-04-19T00:25:02.272Z,103030.69
2023-04-19T00:27:30.393Z,103027.13
2023-04-19T00:29:58.530Z,103024.41
2023-04-19T00:32:28.099Z,103021.72
2023-04-19T00:34:56.254Z,103019.94
2023-04-19T00:37:24.340Z,103011.00
2023-04-19T00:39:52.429Z,103019.91
2023-04-19T00:42:20.481Z,103018.13
2023-04-19T00:44:48.600Z,103026.16
2023-04-19T00:47:16.879Z,103029.72
2023-04-19T00:49:46.406Z,103027.03
2023-04-19T00:52:14.502Z,103019.91
2023-04-19T00:54:44.456Z,103021.72
2023-04-19T00:57:12.524Z,103023.53
2023-04-19T00:59:41.186Z,103025.38
2023-04-19T01:02:10.175Z,103021.00
2023-04-19T01:04:38.551Z,103020.13
2023-04-19T01:07:08.193Z,103023.78
2023-04-19T01:09:36.446Z,103018.44
2023-04-19T01:12:04.592Z,103023.81
2023-04-19T01:14:32.687Z,103027.41
2023-04-19T01:17:00.726Z,103025.59
2023-04-19T01:19:28.878Z,103023.81
2023-04-19T01:21:58.333Z,103033.63
2023-04-19T01:24:27.788Z,103019.38
2023-04-19T01:26:56.294Z,103016.69
2023-04-19T01:29:24.373Z,103017.56
2023-04-19T01:31:53.854Z,103025.63
2023-04-19T01:34:23.177Z,103027.44
2023-04-19T01:36:51.439Z,103009.59
2023-04-19T01:39:19.677Z,103023.00
2023-04-19T01:41:49.088Z,103021.25
2023-04-19T01:44:17.338Z,103017.69
2023-04-19T01:46:45.779Z,103014.16
2023-04-19T01:49:13.936Z,103015.97
2023-04-19T01:51:42.420Z,103010.66
2023-04-19T01:54:10.526Z,103007.97
2023-04-19T01:56:38.624Z,103007.97
2023-04-19T01:59:08.070Z,102995.53
2023-04-19T02:01:36.173Z,102999.16
2023-04-19T02:04:04.816Z,102998.25
2023-04-19T02:06:33.071Z,103000.97
2023-04-19T02:09:01.203Z,102995.63
2023-04-19T02:11:29.291Z,103000.09
2023-04-19T02:13:57.366Z,102996.50
2023-04-19T02:16:26.901Z,102993.81
2023-04-19T02:18:55.105Z,102996.47
2023-04-19T02:21:23.167Z,103000.03
2023-04-19T02:23:51.286Z,103000.00
2023-04-19T02:26:20.380Z,102998.25
2023-04-19T02:28:48.432Z,103002.69
2023-04-19T02:31:16.509Z,102994.63
2023-04-19T02:33:47.176Z,102989.25
2023-04-19T02:36:15.231Z,102986.56
2023-04-19T02:38:43.699Z,102986.56
2023-04-19T02:41:11.802Z,102986.56
2023-04-19T02:43:39.894Z,102988.34
2023-04-19T02:46:08.055Z,102987.44
2023-04-19T02:48:36.172Z,102983.88
2023-04-19T02:51:05.640Z,102983.00
2023-04-19T02:53:33.712Z,102969.63
2023-04-19T02:56:02.359Z,102970.50
2023-04-19T02:58:30.435Z,102968.72
2023-04-19T03:00:58.546Z,102964.25
2023-04-19T03:03:26.800Z,102978.56
2023-04-19T03:05:55.224Z,102973.25
2023-04-19T03:08:24.685Z,102978.63
2023-04-19T03:10:52.746Z,102973.28
2023-04-19T03:13:20.844Z,102965.25
2023-04-19T03:15:49.217Z,102975.06
2023-04-19T03:18:18.010Z,102971.47
2023-04-19T03:20:46.077Z,102972.34
2023-04-19T03:23:14.144Z,102958.94
2023-04-19T03:25:43.656Z,102957.13
2023-04-19T03:28:11.694Z,102952.69
2023-04-19T03:30:39.772Z,102948.22
2023-04-19T03:33:07.893Z,102946.41
2023-04-19T03:35:36.005Z,102950.00
2023-04-19T03:38:04.147Z,102947.34
2023-04-19T03:40:34.267Z,102940.25
2023-04-19T03:43:03.724Z,102943.81
2023-04-19T03:45:31.981Z,102936.66
2023-04-19T03:48:02.177Z,102932.19
2023-04-19T03:50:31.134Z,102933.03
2023-04-19T03:52:59.206Z,102939.25
2023-04-19T03:55:27.373Z,102935.66
2023-04-19T03:57:55.502Z,102934.75
2023-04-19T04:00:25.218Z,102931.16
2023-04-19T04:02:53.465Z,102936.47
2023-04-19T04:05:21.777Z,102939.13
2023-04-19T04:07:49.873Z,102929.25
2023-04-19T04:10:18.063Z,102930.13
2023-04-19T04:12:46.121Z,102924.72
2023-04-19T04:15:14.425Z,102929.09
2023-04-19T04:17:43.887Z,102928.16
2023-04-19T04:20:13.563Z,102920.94
2023-04-19T04:22:43.278Z,102928.03
2023-04-19T04:25:12.520Z,102920.84
2023-04-19T04:27:40.604Z,102921.69
2023-04-19T04:30:09.740Z,102924.31
2023-04-19T04:32:38.364Z,102922.50
2023-04-19T04:35:09.825Z,102926.94
2023-04-19T04:37:38.141Z,102922.44
2023-04-19T04:40:08.151Z,102922.38
2023-04-19T04:42:37.781Z,102919.66
2023-04-19T04:45:06.648Z,102928.50
2023-04-19T04:47:35.471Z,102921.28
2023-04-19T04:50:04.115Z,102917.63
2023-04-19T04:52:33.534Z,102916.66
2023-04-19T04:55:01.621Z,102914.81
2023-04-19T04:57:29.656Z,102926.38
2023-04-19T04:59:57.754Z,102916.41
2023-04-19T05:02:26.305Z,102925.28
2023-04-19T05:04:54.513Z,102926.97
2023-04-19T05:07:22.622Z,102922.44
2023-04-19T05:09:52.127Z,102925.03
2023-04-19T05:12:20.167Z,102917.75
2023-04-19T05:14:48.252Z,102917.66
2023-04-19T05:17:16.319Z,102914.88
2023-04-19T05:19:44.477Z,102924.53
2023-04-19T05:22:12.601Z,102927.09
2023-04-19T05:24:42.302Z,102926.06
2023-04-19T05:27:12.310Z,102926.78
2023-04-19T05:29:40.448Z,102924.84
2023-04-19T05:32:08.729Z,102930.03
2023-04-19T05:34:37.522Z,102928.09
2023-04-19T05:37:06.632Z,102923.47
2023-04-19T05:39:34.715Z,102922.41
2023-04-19T05:42:02.962Z,102925.75
2023-04-19T05:44:32.904Z,102933.47
2023-04-19T05:47:01.252Z,102926.63
2023-04-19T05:49:29.348Z,102920.53
2023-04-19T05:51:57.420Z,102923.50
2023-04-19T05:54:26.200Z,102924.78
2023-04-19T05:56:54.273Z,102921.59
2023-04-19T05:59:22.406Z,102922.13
2023-04-19T06:01:52.756Z,102917.19
2023-04-19T06:04:21.635Z,102925.81
2023-04-19T06:06:50.180Z,102921.25
2023-04-19T06:09:19.267Z,102928.28
2023-04-19T06:11:51.216Z,102929.06
2023-04-19T06:14:19.834Z,102918.97
2023-04-19T06:16:48.124Z,102930.22
2023-04-19T06:19:17.702Z,102933.41
2023-04-19T06:21:46.034Z,102925.88
2023-04-19T06:24:14.343Z,102928.53
2023-04-19T06:26:43.258Z,102923.81
2023-04-19T06:29:11.386Z,102922.44
2023-04-19T06:31:39.647Z,102929.22
2023-04-19T06:34:07.789Z,102922.50
2023-04-19T06:36:37.264Z,102920.41
2023-04-19T06:39:05.469Z,102921.22
2023-04-19T06:41:33.540Z,102922.47
2023-04-19T06:44:01.656Z,102923.91
2023-04-19T06:46:29.894Z,102913.81
2023-04-19T06:48:58.040Z,102915.44
2023-04-19T06:51:26.136Z,102911.78
2023-04-19T06:53:55.615Z,102924.78
2023-04-19T06:56:42.147Z,102920.81
2023-04-19T06:59:10.278Z,102909.81
2023-04-19T07:01:38.876Z,102921.84
2023-04-19T07:04:07.688Z,102914.06
2023-04-19T07:06:36.039Z,102918.59
2023-04-19T07:09:06.502Z,102919.84
2023-04-19T07:11:35.114Z,102917.72
2023-04-19T07:14:03.322Z,102912.88
2023-04-19T07:16:31.496Z,102916.34
2023-04-19T07:18:59.840Z,102903.47
2023-04-19T07:21:32.788Z,102896.97
2023-04-19T07:24:00.967Z,102894.69
2023-04-19T07:26:30.742Z,102912.41
2023-04-19T07:28:58.851Z,102906.03
2023-04-19T07:31:27.166Z,102902.44
2023-04-19T07:33:55.689Z,102903.56
2023-04-19T07:36:23.838Z,102895.44
2023-04-19T07:38:52.236Z,102894.56
2023-04-19T07:41:20.401Z,102899.09
2023-04-19T07:43:49.815Z,102889.28
2023-04-19T07:46:18.616Z,102895.88
2023-04-19T07:48:47.328Z,102892.09
2023-04-19T07:51:17.452Z,102887.94
2023-04-19T07:53:45.592Z,102884.72
2023-04-19T07:56:14.353Z,102883.66
2023-04-19T07:58:43.025Z,102885.78
2023-04-19T08:01:13.454Z,102880.97
2023-04-19T08:03:42.242Z,102881.38
2023-04-19T08:06:10.468Z,102883.47
2023-04-19T08:08:38.537Z,102882.16
2023-04-19T08:11:07.140Z,102877.25
2023-04-19T08:13:35.982Z,102861.06
2023-04-19T08:16:32.286Z,102873.38
2023-04-19T08:18:53.583Z,102870.00
2023-04-19T08:21:26.091Z,102862.59
2023-04-19T08:23:59.319Z,102870.47
2023-04-19T08:26:27.450Z,102858.44
2023-04-19T08:28:55.519Z,102855.31
2023-04-19T08:31:23.684Z,102854.13
2023-04-19T08:33:53.241Z,102847.88
2023-04-19T08:36:32.524Z,102849.78
2023-04-19T08:39:10.055Z,102851.38
2023-04-19T08:41:44.885Z,102832.13
2023-04-19T08:44:15.877Z,102839.03
2023-04-19T08:46:46.622Z,102832.66
2023-04-19T08:49:16.329Z,102823.78
2023-04-19T08:51:45.441Z,102829.78
2023-04-19T08:54:13.882Z,102830.00
2023-04-19T08:56:42.128Z,102824.84
2023-04-19T08:59:18.070Z,102810.09
2023-04-19T09:01:46.731Z,102813.06
2023-04-19T09:04:35.678Z,102819.34
2023-04-19T09:07:04.312Z,102813.31
2023-04-19T09:09:40.759Z,102808.84
2023-04-19T09:12:18.756Z,102810.44
2023-04-19T09:15:00.669Z,102804.28
2023-04-19T09:17:29.878Z,102810.69
2023-04-19T09:19:59.804Z,102806.47
2023-04-19T09:22:28.095Z,102802.88
2023-04-19T09:27:29.998Z,102801.69
2023-04-19T09:29:58.955Z,102796.25
2023-04-19T09:32:28.251Z,102801.03
2023-04-19T09:34:57.960Z,102789.72
2023-04-19T09:37:51.328Z,102793.63
2023-04-19T09:40:26.916Z,102797.88
2023-04-19T09:43:08.872Z,102792.16
2023-04-19T09:45:44.058Z,102778.03
2023-04-19T09:48:13.088Z,102788.56
2023-04-19T09:50:58.594Z,102790.56
2023-04-19T09:53:34.278Z,102776.88
2023-04-19T09:56:04.413Z,102778.06
2023-04-19T10:01:14.155Z,102780.38
2023-04-19T10:03:45.982Z,102771.34
2023-04-19T10:06:39.968Z,102771.16
2023-04-19T10:09:07.012Z,102762.25
2023-04-19T10:11:40.061Z,102760.41
2023-04-19T10:14:09.811Z,102767.63
2023-04-19T10:16:39.358Z,102744.41
2023-04-19T10:19:10.612Z,102760.13
2023-04-19T10:21:39.568Z,102750.09
2023-04-19T10:24:10.130Z,102758.41
2023-04-19T10:27:11.380Z,102738.91
2023-04-19T10:30:03.901Z,102748.19
2023-04-19T10:32:39.708Z,102735.09
2023-04-19T10:35:12.892Z,102725.66
2023-04-19T10:37:42.956Z,102724.38
2023-04-19T10:40:13.471Z,102728.56
2023-04-19T10:43:16.091Z,102715.94
2023-04-19T10:45:46.663Z,102739.69
2023-04-19T10:48:44.103Z,102719.75
2023-04-19T10:51:16.898Z,102712.66
2023-04-19T10:53:49.687Z,102722.59
2023-04-19T10:56:20.273Z,102713.75
2023-04-19T10:59:15.166Z,102716.47
2023-04-19T11:01:45.313Z,102711.34
2023-04-19T11:04:14.774Z,102710.25
2023-04-19T11:07:01.320Z,102707.41
2023-04-19T11:09:31.716Z,102712.41
2023-04-19T11:12:03.601Z,102694.97
2023-04-19T11:14:36.233Z,102702.75
2023-04-19T11:17:14.888Z,102709.69
2023-04-19T11:19:44.701Z,102706.19
2023-04-19T11:22:12.814Z,102702.38
2023-04-19T11:24:47.025Z,102698.03
2023-04-19T11:27:16.725Z,102687.81
2023-04-19T11:29:44.934Z,102704.00
2023-04-19T11:32:13.042Z,102694.38
2023-04-19T11:34:41.790Z,102690.66
2023-04-19T11:37:12.031Z,102681.81
2023-04-19T11:39:47.361Z,102685.97
2023-04-19T11:42:21.044Z,102685.78
2023-04-19T11:44:52.841Z,102677.72
2023-04-19T11:47:21.202Z,102684.25
2023-04-19T11:49:49.283Z,102670.41
2023-04-19T11:52:23.003Z,102670.59
2023-04-19T11:54:52.298Z,102662.69
2023-04-19T11:57:30.249Z,102669.28
2023-04-19T12:00:11.934Z,102674.81
2023-04-19T12:02:41.219Z,102652.94
2023-04-19T12:05:11.576Z,102658.81
2023-04-19T12:07:55.211Z,102671.38
2023-04-19T12:10:23.494Z,102656.34
2023-04-19T12:12:52.960Z,102663.38
2023-04-19T12:15:23.083Z,102660.97
2023-04-19T12:18:01.707Z,102660.09
2023-04-19T12:20:31.577Z,102653.41
2023-04-19T12:22:59.790Z,102657.81
2023-04-19T12:25:31.709Z,102644.72
2023-04-19T12:28:02.194Z,102652.34
2023-04-19T12:30:30.561Z,102653.88
2023-04-19T12:32:59.649Z,102651.94
2023-04-19T12:35:28.492Z,102644.72
2023-04-19T12:37:58.206Z,102647.66
2023-04-19T12:40:27.686Z,102645.44
2023-04-19T12:42:56.048Z,102647.75
2023-04-19T12:45:25.580Z,102646.84
2023-04-19T12:47:53.873Z,102648.09
2023-04-19T12:50:22.203Z,102638.13
2023-04-19T12:52:51.957Z,102641.56
2023-04-19T12:55:20.126Z,102629.38
2023-04-19T12:57:48.735Z,102634.88
2023-04-19T13:00:17.497Z,102637.31
2023-04-19T13:02:48.491Z,102629.94
2023-04-19T13:05:16.910Z,102636.84
2023-04-19T13:07:45.126Z,102629.22
2023-04-19T13:10:13.525Z,102632.63
2023-04-19T13:12:41.705Z,102620.72
2023-04-19T13:15:11.075Z,102619.84
2023-04-19T13:17:39.262Z,102618.28
2023-04-19T13:20:10.568Z,102614.16
2023-04-19T13:22:38.704Z,102619.31
2023-04-19T13:25:07.615Z,102612.28
2023-04-19T13:27:35.784Z,102612.59
2023-04-19T13:30:04.080Z,102606.94
2023-04-19T13:32:32.491Z,102607.59
2023-04-19T13:35:00.628Z,102599.31
2023-04-19T13:37:30.305Z,102614.59
2023-04-19T13:40:10.728Z,102622.25
2023-04-19T13:42:45.922Z,102611.09
2023-04-19T13:45:14.339Z,102609.63
2023-04-19T13:47:42.545Z,102596.63
2023-04-19T13:50:11.052Z,102607.34
2023-04-19T13:52:40.522Z,102601.09
2023-04-19T13:55:09.276Z,102585.69
2023-04-19T13:57:37.335Z,102587.94
2023-04-19T14:00:06.542Z,102581.75
2023-04-19T14:02:34.885Z,102586.41
2023-04-19T14:05:04.570Z,102588.34
2023-04-19T14:07:32.754Z,102582.41
2023-04-19T14:10:02.258Z,102578.00
2023-04-19T14:12:30.645Z,102579.81
2023-04-19T14:14:58.819Z,102567.56
2023-04-19T14:17:27.481Z,102569.78
2023-04-19T14:19:56.222Z,102574.88
2023-04-19T14:22:24.388Z,102571.19
2023-04-19T14:24:52.499Z,102559.44
2023-04-19T14:27:22.141Z,102570.66
2023-04-19T14:29:50.235Z,102556.09
2023-04-19T14:32:25.799Z,102546.53
2023-04-19T14:34:55.923Z,102561.09
2023-04-19T14:37:25.205Z,102560.50
2023-04-19T14:39:53.328Z,102549.44
2023-04-19T14:42:23.146Z,102532.41
2023-04-19T14:44:52.721Z,102535.19
2023-04-19T14:47:21.540Z,102532.91
2023-04-19T14:49:49.957Z,102535.44
2023-04-19T14:52:18.237Z,102542.53
2023-04-19T14:54:46.395Z,102526.81
2023-04-19T14:57:14.973Z,102540.88
2023-04-19T14:59:44.458Z,102530.13
2023-04-19T15:02:13.493Z,102524.69
2023-04-19T15:04:42.357Z,102525.03
2023-04-19T15:07:11.406Z,102529.13
2023-04-19T15:09:40.308Z,102524.00
2023-04-19T15:12:08.617Z,102525.31
2023-04-19T15:14:36.954Z,102538.41
2023-04-19T15:17:06.725Z,102531.03
2023-04-19T15:19:34.833Z,102524.81
2023-04-19T15:22:04.136Z,102524.91
2023-04-19T15:24:32.889Z,102523.63
2023-04-19T15:27:01.564Z,102518.56
2023-04-19T15:29:29.742Z,102521.72
2023-04-19T15:31:57.918Z,102514.81
2023-04-19T15:34:27.380Z,102498.00
2023-04-19T15:36:55.484Z,102505.03
2023-04-19T15:39:23.563Z,102500.38
2023-04-19T15:41:52.042Z,102503.47
2023-04-19T15:44:20.174Z,102504.34
2023-04-19T15:46:48.297Z,102497.44
2023-04-19T15:49:16.761Z,102500.13
2023-04-19T15:51:46.610Z,102494.50
2023-04-19T15:54:15.775Z,102482.34
2023-04-19T15:56:43.865Z,102496.31
2023-04-19T15:59:12.007Z,102493.47
2023-04-19T16:01:40.180Z,102489.53
2023-04-19T16:04:08.392Z,102496.13
2023-04-19T16:06:36.551Z,102488.28
2023-04-19T16:09:06.545Z,102495.31
2023-04-19T16:11:34.721Z,102485.56
2023-04-19T16:14:02.883Z,102504.25
2023-04-19T16:16:34.770Z,102496.00
2023-04-19T16:19:03.028Z,102498.63
2023-04-19T16:21:31.523Z,102484.19
2023-04-19T16:24:00.769Z,102489.38
2023-04-19T16:26:30.210Z,102493.13
2023-04-19T16:28:59.232Z,102478.59
2023-04-19T16:31:27.514Z,102487.34
2023-04-19T16:33:55.682Z,102480.69
2023-04-19T16:36:23.778Z,102479.66
2023-04-19T16:38:51.896Z,102478.72
2023-04-19T16:41:19.962Z,102476.84
2023-04-19T16:43:49.371Z,102478.03
2023-04-19T16:46:17.629Z,102477.38
2023-04-19T16:48:45.796Z,102478.03
2023-04-19T16:51:13.863Z,102479.41
2023-04-19T16:53:42.800Z,102473.25
2023-04-19T16:56:10.881Z,102475.13
2023-04-19T16:58:39.000Z,102465.28
2023-04-19T17:01:09.040Z,102467.00
2023-04-19T17:03:37.352Z,102464.97
2023-04-19T17:06:05.764Z,102465.41
2023-04-19T17:08:33.983Z,102460.50
2023-04-19T17:11:02.071Z,102467.06
2023-04-19T17:13:30.599Z,102460.78
2023-04-19T17:15:58.776Z,102460.94
2023-04-19T17:18:28.306Z,102459.53
2023-04-19T17:20:56.405Z,102447.78
2023-04-19T17:23:24.541Z,102464.25
2023-04-19T17:25:52.673Z,102453.47
2023-04-19T17:28:20.731Z,102445.19
2023-04-19T17:30:48.793Z,102448.44
2023-04-19T17:33:16.864Z,102439.03
2023-04-19T17:35:46.339Z,102446.66
2023-04-19T17:38:14.418Z,102442.56
2023-04-19T17:40:42.510Z,102448.16
2023-04-19T17:43:11.291Z,102450.25
2023-04-19T17:45:39.403Z,102450.50
2023-04-19T17:48:07.696Z,102451.59
2023-04-19T17:50:36.062Z,102450.13
2023-04-19T17:53:05.521Z,102450.28
2023-04-19T17:55:33.760Z,102452.19
2023-04-19T17:58:02.105Z,102451.31
2023-04-19T18:00:30.377Z,102452.25
2023-04-19T18:02:58.715Z,102458.59
2023-04-19T18:05:26.933Z,102453.34
2023-04-19T18:07:55.134Z,102447.09
2023-04-19T18:10:24.626Z,102459.22
2023-04-19T18:12:53.751Z,102448.78
2023-04-19T18:15:22.130Z,102453.66
2023-04-19T18:17:50.240Z,102458.50
2023-04-19T18:20:19.668Z,102461.38
2023-04-19T18:22:49.826Z,102455.34
2023-04-19T18:25:18.072Z,102453.75
2023-04-19T18:27:49.339Z,102455.84
2023-04-19T18:30:17.675Z,102459.69
2023-04-19T18:32:45.804Z,102463.53
2023-04-19T18:35:14.051Z,102460.09
2023-04-19T18:37:42.172Z,102453.06
2023-04-19T18:40:11.016Z,102463.19
2023-04-19T18:42:39.105Z,102455.19
2023-04-19T18:45:10.274Z,102458.94
2023-04-19T18:47:38.426Z,102456.38
2023-04-19T18:50:08.533Z,102462.69
2023-04-19T18:52:37.215Z,102447.53
2023-04-19T18:55:06.070Z,102457.63
2023-04-19T18:57:37.837Z,102459.72
2023-04-19T19:00:09.483Z,102459.84
2023-04-19T19:02:40.879Z,102456.44
2023-04-19T19:05:13.548Z,102458.34
2023-04-19T19:07:42.472Z,102462.16
2023-04-19T19:10:19.442Z,102461.41
2023-04-19T19:12:50.097Z,102456.97
2023-04-19T19:15:18.593Z,102462.53
2023-04-19T19:17:51.245Z,102460.91
2023-04-19T19:20:20.166Z,102461.94
2023-04-19T19:22:48.496Z,102458.53
2023-04-19T19:25:16.687Z,102458.66
2023-04-19T19:28:02.919Z,102461.56
2023-04-19T19:30:33.945Z,102468.94
2023-04-19T19:33:04.806Z,102473.56
2023-04-19T19:35:33.509Z,102470.09
2023-04-19T19:38:02.844Z,102473.03
2023-04-19T19:40:32.427Z,102466.88
2023-04-19T19:43:01.311Z,102462.59
2023-04-19T19:45:30.066Z,102456.47
2023-04-19T19:47:59.605Z,102462.91
2023-04-19T19:53:01.751Z,102459.50
2023-04-19T19:55:30.336Z,102454.19
2023-04-19T20:00:42.725Z,102453.56
2023-04-19T20:03:13.716Z,102456.25
2023-04-19T20:05:43.616Z,102459.00
2023-04-19T20:08:13.265Z,102451.88
2023-04-19T20:10:43.146Z,102451.06
2023-04-19T20:13:12.961Z,102452.00
2023-04-19T20:15:41.534Z,102456.53
2023-04-19T20:18:09.659Z,102453.97
2023-04-19T20:20:38.086Z,102449.50
2023-04-19T20:23:07.646Z,102449.63
2023-04-19T20:25:35.926Z,102451.44
2023-04-19T20:28:04.788Z,102452.38
2023-04-19T20:30:32.976Z,102456.06
2023-04-19T20:33:01.217Z,102460.59
2023-04-19T20:35:29.571Z,102466.16
2023-04-19T20:38:02.460Z,102468.03
2023-04-19T20:40:32.230Z,102470.72
2023-04-19T20:43:00.361Z,102464.44
2023-04-19T20:45:28.763Z,102459.06
2023-04-19T20:47:58.412Z,102455.56
2023-04-19T20:50:26.713Z,102449.38
2023-04-19T20:52:54.829Z,102445.06
2023-04-19T20:55:23.003Z,102442.56
2023-04-19T20:57:52.461Z,102436.44
2023-04-19T21:00:20.755Z,102438.38
2023-04-19T21:02:49.584Z,102428.75
2023-04-19T21:05:17.953Z,102425.41
2023-04-19T21:07:46.143Z,102425.63
2023-04-19T21:10:16.358Z,102424.88
2023-04-19T21:12:44.653Z,102419.66
2023-04-19T21:15:14.285Z,102423.34
2023-04-19T21:17:42.474Z,102419.06
2023-04-19T21:20:14.139Z,102419.19
2023-04-19T21:22:42.795Z,102415.63
2023-04-19T21:25:12.299Z,102412.84
2023-04-19T21:27:41.557Z,102405.69
2023-04-19T21:30:11.058Z,102410.09
2023-04-19T21:32:40.593Z,102406.47
2023-04-19T21:35:09.359Z,102410.81
2023-04-19T21:37:37.543Z,102413.41
2023-04-19T21:40:06.615Z,102406.16
2023-04-19T21:42:34.782Z,102405.13
2023-04-19T21:45:03.040Z,102400.50
2023-04-19T21:47:31.856Z,102395.06
2023-04-19T21:50:01.481Z,102386.00
2023-04-19T21:52:29.652Z,102387.66
2023-04-19T21:54:57.751Z,102384.97
2023-04-19T21:57:27.092Z,102383.94
2023-04-19T21:59:55.408Z,102383.81
2023-04-19T22:02:23.895Z,102388.28
2023-04-19T22:04:52.722Z,102376.53
2023-04-19T22:07:23.852Z,102371.00
2023-04-19T22:09:52.304Z,102370.88
2023-04-19T22:12:20.464Z,102363.56
2023-04-19T22:14:48.613Z,102369.72
2023-04-19T22:17:18.505Z,102362.47
2023-04-19T22:19:46.790Z,102358.78
2023-04-19T22:22:14.986Z,102364.06
2023-04-19T22:24:56.823Z,102365.75
2023-04-19T22:27:26.163Z,102363.88
2023-04-19T22:29:54.407Z,102362.00
2023-04-19T22:32:22.725Z,102356.56
2023-04-19T22:34:51.032Z,102355.63
2023-04-19T22:37:19.523Z,102351.25
2023-04-19T22:39:49.217Z,102353.00
2023-04-19T22:42:17.297Z,102350.31
2023-04-19T22:44:45.461Z,102340.53
2023-04-19T22:47:14.411Z,102342.34
2023-04-19T22:49:43.491Z,102336.97
2023-04-19T22:52:12.741Z,102337.84
2023-04-19T22:54:40.864Z,102334.94
2023-04-19T22:57:11.164Z,102329.38
2023-04-19T22:59:39.295Z,102321.13
2023-04-19T23:02:07.403Z,102321.00
2023-04-19T23:04:36.144Z,102311.06
2023-04-19T23:07:04.925Z,102313.69
2023-04-19T23:09:33.103Z,102307.28
2023-04-19T23:12:02.045Z,102301.75
2023-04-19T23:14:31.500Z,102306.94
2023-04-19T23:17:00.629Z,102280.81
2023-04-19T23:19:28.732Z,102287.91
2023-04-19T23:21:56.872Z,102287.84
2023-04-19T23:24:25.086Z,102290.53
2023-04-19T23:26:53.178Z,102290.66
2023-04-19T23:29:21.350Z,102274.63
2023-04-19T23:31:50.981Z,102274.69
2023-04-19T23:34:19.155Z,102288.34
2023-04-19T23:36:47.288Z,102271.41
2023-04-19T23:39:16.310Z,102276.00
2023-04-19T23:41:44.626Z,102278.88
2023-04-19T23:44:12.703Z,102266.47
2023-04-19T23:46:40.886Z,102276.50
2023-04-19T23:49:10.505Z,102265.78
2023-04-19T23:51:38.601Z,102265.00
2023-04-19T23:54:06.835Z,102258.00
2023-04-19T23:56:34.933Z,102254.41
2023-04-19T23:59:03.182Z,102246.53
